createdAt,value
2023-02-08T00:00:06.612Z,15.80
2023-02-08T00:02:34.376Z,11.77
2023-02-08T00:05:02.225Z,13.57
2023-02-08T00:07:30.046Z,13.53
2023-02-08T00:09:57.853Z,15.90
2023-02-08T00:12:25.817Z,14.10
2023-02-08T00:14:53.590Z,11.07
2023-02-08T00:17:22.704Z,12.70
2023-02-08T00:19:50.401Z,13.97
2023-02-08T00:22:18.182Z,12.63
2023-02-08T00:24:45.889Z,13.43
2023-02-08T00:27:13.643Z,11.57
2023-02-08T00:29:41.344Z,11.50
2023-02-08T00:32:10.737Z,15.20
2023-02-08T00:34:39.784Z,11.80
2023-02-08T00:37:08.675Z,11.93
2023-02-08T00:39:36.528Z,14.07
2023-02-08T00:42:04.303Z,12.73
2023-02-08T00:44:32.168Z,12.77
2023-02-08T00:47:00.584Z,12.80
2023-02-08T00:49:28.321Z,11.87
2023-02-08T00:52:09.886Z,11.20
2023-02-08T00:54:38.067Z,12.73
2023-02-08T00:57:06.001Z,9.27
2023-02-08T00:59:37.708Z,14.23
2023-02-08T01:02:05.693Z,14.07
2023-02-08T01:04:33.483Z,12.37
2023-02-08T01:07:05.077Z,11.17
2023-02-08T01:09:34.144Z,13.37
2023-02-08T01:12:02.279Z,12.40
2023-02-08T01:14:30.014Z,16.77
2023-02-08T01:16:57.912Z,13.57
2023-02-08T01:19:25.647Z,12.77
2023-02-08T01:21:53.491Z,12.40
2023-02-08T01:24:22.698Z,15.03
2023-02-08T01:26:50.529Z,12.27
2023-02-08T01:29:18.300Z,13.37
2023-02-08T01:31:47.157Z,13.97
2023-02-08T01:34:14.941Z,13.50
2023-02-08T01:36:42.829Z,15.63
2023-02-08T01:39:11.512Z,12.07
2023-02-08T01:41:43.503Z,12.03
2023-02-08T01:44:45.242Z,14.60
2023-02-08T01:47:13.090Z,14.20
2023-02-08T01:49:41.900Z,15.43
2023-02-08T01:52:10.840Z,13.60
2023-02-08T01:54:46.035Z,19.10
2023-02-08T01:57:15.138Z,16.23
2023-02-08T01:59:44.612Z,17.07
2023-02-08T02:02:13.888Z,14.67
2023-02-08T02:04:41.799Z,14.47
2023-02-08T02:07:09.560Z,12.87
2023-02-08T02:09:41.242Z,12.90
2023-02-08T02:12:09.185Z,10.73
2023-02-08T02:14:38.583Z,10.50
2023-02-08T02:17:06.386Z,10.30
2023-02-08T02:19:38.163Z,11.20
2023-02-08T02:22:19.971Z,10.63
2023-02-08T02:25:13.517Z,10.47
2023-02-08T02:28:10.675Z,12.20
2023-02-08T02:31:07.837Z,11.07
2023-02-08T02:33:46.599Z,13.83
2023-02-08T02:36:18.987Z,10.30
2023-02-08T02:38:54.660Z,11.57
2023-02-08T02:41:41.101Z,11.43
2023-02-08T02:44:13.240Z,11.77
2023-02-08T02:46:42.229Z,11.83
2023-02-08T02:49:13.989Z,11.30
2023-02-08T02:51:43.838Z,9.67
2023-02-08T02:54:14.337Z,9.37
2023-02-08T02:56:46.037Z,10.70
2023-02-08T02:59:14.627Z,12.57
2023-02-08T03:01:43.540Z,9.00
2023-02-08T03:04:16.882Z,10.97
2023-02-08T03:06:52.570Z,9.13
2023-02-08T03:09:40.249Z,10.87
2023-02-08T03:12:15.464Z,9.90
2023-02-08T03:14:46.078Z,9.83
2023-02-08T03:17:24.559Z,9.97
2023-02-08T03:19:58.407Z,8.97
2023-02-08T03:22:27.645Z,9.10
2023-02-08T03:24:56.062Z,11.73
2023-02-08T03:27:28.994Z,8.73
2023-02-08T03:30:00.174Z,8.57
2023-02-08T03:32:29.494Z,9.17
2023-02-08T03:35:01.005Z,10.47
2023-02-08T03:37:29.939Z,9.63
2023-02-08T03:40:00.057Z,11.00
2023-02-08T03:42:28.228Z,8.87
2023-02-08T03:44:57.825Z,8.53
2023-02-08T03:47:27.158Z,10.10
2023-02-08T03:49:56.141Z,10.23
2023-02-08T03:52:25.380Z,7.13
2023-02-08T03:54:56.672Z,8.07
2023-02-08T03:57:25.229Z,10.97
2023-02-08T03:59:55.403Z,10.70
2023-02-08T04:02:23.248Z,8.33
2023-02-08T04:04:51.216Z,8.43
2023-02-08T04:07:19.186Z,12.07
2023-02-08T04:09:48.455Z,10.20
2023-02-08T04:12:16.227Z,10.50
2023-02-08T04:14:44.084Z,10.67
2023-02-08T04:17:11.818Z,8.77
2023-02-08T04:19:39.675Z,9.23
2023-02-08T04:22:07.493Z,8.67
2023-02-08T04:24:35.329Z,8.97
2023-02-08T04:27:06.081Z,8.90
2023-02-08T04:29:34.111Z,9.63
2023-02-08T04:32:02.523Z,7.83
2023-02-08T04:34:30.511Z,10.03
2023-02-08T04:36:58.341Z,9.90
2023-02-08T04:39:26.423Z,8.87
2023-02-08T04:41:54.317Z,9.03
2023-02-08T04:44:23.978Z,8.23
2023-02-08T04:46:51.735Z,9.00
2023-02-08T04:49:19.645Z,10.20
2023-02-08T04:51:47.539Z,9.47
2023-02-08T04:54:15.355Z,9.53
2023-02-08T04:56:43.187Z,12.10
2023-02-08T04:59:10.962Z,8.93
2023-02-08T05:01:40.175Z,8.27
2023-02-08T05:04:07.927Z,10.70
2023-02-08T05:06:35.757Z,9.73
2023-02-08T05:09:03.736Z,7.30
2023-02-08T05:11:32.558Z,12.77
2023-02-08T05:14:00.421Z,8.83
2023-02-08T05:16:28.420Z,9.37
2023-02-08T05:18:58.154Z,9.50
2023-02-08T05:21:26.323Z,8.17
2023-02-08T05:23:54.241Z,8.93
2023-02-08T05:26:22.184Z,7.07
2023-02-08T05:28:50.055Z,7.80
2023-02-08T05:31:19.543Z,7.20
2023-02-08T05:33:47.499Z,8.40
2023-02-08T05:36:17.422Z,8.17
2023-02-08T05:38:45.225Z,11.40
2023-02-08T05:41:14.083Z,10.80
2023-02-08T05:43:41.839Z,11.50
2023-02-08T05:46:09.789Z,8.07
2023-02-08T05:48:37.749Z,7.73
2023-02-08T05:53:34.637Z,8.90
2023-02-08T05:56:02.411Z,10.10
2023-02-08T05:58:30.319Z,8.13
2023-02-08T06:00:58.414Z,8.27
2023-02-08T06:03:26.446Z,7.10
2023-02-08T06:05:54.115Z,9.47
2023-02-08T06:08:21.999Z,10.00
2023-02-08T06:10:51.241Z,10.60
2023-02-08T06:13:19.418Z,10.23
2023-02-08T06:15:47.308Z,10.40
2023-02-08T06:18:16.440Z,8.73
2023-02-08T06:20:44.440Z,11.30
2023-02-08T06:23:12.194Z,9.63
2023-02-08T06:25:40.101Z,10.87
2023-02-08T06:28:10.752Z,10.37
2023-02-08T06:30:38.848Z,10.67
2023-02-08T06:33:07.005Z,11.50
2023-02-08T06:35:34.721Z,9.93
2023-02-08T06:38:06.260Z,9.60
2023-02-08T06:40:39.390Z,9.27
2023-02-08T06:43:08.809Z,9.90
2023-02-08T06:45:39.279Z,10.17
2023-02-08T06:48:14.636Z,9.13
2023-02-08T06:50:42.910Z,9.27
2023-02-08T06:53:11.036Z,8.70
2023-02-08T06:55:44.929Z,9.90
2023-02-08T06:58:14.232Z,12.87
2023-02-08T07:00:50.224Z,9.73
2023-02-08T07:03:18.576Z,12.10
2023-02-08T07:06:02.543Z,9.87
2023-02-08T07:08:34.657Z,10.43
2023-02-08T07:11:07.802Z,8.03
2023-02-08T07:13:37.099Z,8.70
2023-02-08T07:16:04.991Z,10.50
2023-02-08T07:18:33.238Z,9.63
2023-02-08T07:21:03.651Z,9.50
2023-02-08T07:23:31.388Z,11.80
2023-02-08T07:26:02.786Z,10.47
2023-02-08T07:28:30.595Z,8.27
2023-02-08T07:30:59.737Z,9.03
2023-02-08T07:33:27.581Z,11.77
2023-02-08T07:35:55.452Z,11.00
2023-02-08T07:38:23.326Z,10.30
2023-02-08T07:40:51.068Z,11.70
2023-02-08T07:43:18.986Z,9.33
2023-02-08T07:45:46.700Z,14.50
2023-02-08T07:48:15.741Z,10.70
2023-02-08T07:50:43.501Z,11.87
2023-02-08T07:53:11.495Z,11.10
2023-02-08T07:55:39.263Z,9.00
2023-02-08T07:58:07.399Z,10.87
2023-02-08T08:00:35.251Z,8.90
2023-02-08T08:03:03.106Z,8.83
2023-02-08T08:05:32.371Z,10.50
2023-02-08T08:08:00.309Z,12.17
2023-02-08T08:10:29.015Z,9.23
2023-02-08T08:12:56.655Z,11.10
2023-02-08T08:15:24.440Z,13.13
2023-02-08T08:17:52.128Z,11.23
2023-02-08T08:20:21.278Z,12.73
2023-02-08T08:22:50.325Z,8.57
2023-02-08T13:03:04.986Z,2.50
2023-02-08T13:05:34.502Z,2.60
2023-02-08T13:08:04.869Z,6.13
2023-02-08T13:10:35.208Z,2.55
2023-02-08T13:13:07.211Z,2.35
2023-02-08T13:15:38.604Z,2.92
2023-02-08T13:18:14.863Z,2.40
2023-02-08T13:20:44.344Z,2.83
2023-02-08T13:23:17.697Z,2.60
2023-02-08T13:25:48.809Z,2.77
2023-02-08T13:28:20.767Z,2.43
2023-02-08T13:30:53.836Z,2.87
2023-02-08T13:33:30.795Z,2.80
2023-02-08T13:35:59.294Z,3.53
2023-02-08T13:38:29.146Z,3.20
2023-02-08T13:41:08.533Z,3.07
2023-02-08T13:43:40.176Z,3.20
2023-02-08T13:46:08.211Z,2.77
2023-02-08T13:48:50.501Z,3.03
2023-02-08T13:51:59.944Z,2.60
2023-02-08T13:54:29.966Z,2.80
2023-02-08T13:56:57.795Z,3.07
2023-02-08T13:59:28.880Z,2.63
2023-02-08T14:02:20.306Z,2.80
2023-02-08T14:04:53.965Z,2.77
2023-02-08T14:07:37.438Z,3.00
2023-02-08T14:10:14.060Z,3.17
2023-02-08T14:12:44.063Z,2.63
2023-02-08T14:15:29.829Z,3.77
2023-02-08T14:18:02.628Z,2.53
2023-02-08T14:20:34.584Z,2.47
2023-02-08T14:23:06.622Z,2.73
2023-02-08T14:25:43.556Z,2.27
2023-02-08T14:28:28.500Z,2.60
2023-02-08T14:31:04.493Z,3.80
2023-02-08T14:33:33.398Z,2.00
2023-02-08T14:36:04.158Z,2.67
2023-02-08T14:38:36.328Z,2.60
2023-02-08T14:41:04.527Z,2.30
2023-02-08T14:43:34.130Z,4.00
2023-02-08T14:46:34.998Z,2.20
2023-02-08T14:49:05.156Z,2.83
2023-02-08T14:51:35.239Z,2.67
2023-02-08T14:54:04.831Z,2.30
2023-02-08T14:56:33.656Z,2.80
2023-02-08T14:59:02.512Z,2.57
2023-02-08T15:01:43.969Z,2.60
2023-02-08T15:04:12.491Z,2.10
2023-02-08T15:07:12.747Z,2.00
2023-02-08T15:09:41.213Z,2.37
2023-02-08T15:12:11.860Z,2.93
2023-02-08T15:14:41.522Z,1.90
2023-02-08T15:17:28.339Z,2.60
2023-02-08T15:19:56.094Z,3.37
2023-02-08T15:22:34.136Z,3.70
2023-02-08T15:25:05.607Z,2.07
2023-02-08T15:27:34.040Z,3.03
2023-02-08T15:30:01.960Z,2.50
2023-02-08T15:32:30.114Z,2.50
2023-02-08T15:34:59.219Z,4.53
2023-02-08T15:37:27.182Z,1.90
2023-02-08T15:39:57.068Z,2.83
2023-02-08T15:42:25.606Z,2.60
2023-02-08T15:44:53.669Z,3.00
2023-02-08T15:47:23.702Z,2.30
2023-02-08T15:49:53.522Z,3.07
2023-02-08T15:52:22.571Z,3.17
2023-02-08T15:54:50.331Z,2.60
2023-02-08T15:57:24.405Z,2.80
2023-02-08T15:59:52.083Z,3.00
2023-02-08T16:02:24.779Z,3.10
2023-02-08T16:04:52.561Z,2.60
2023-02-08T16:07:25.749Z,5.00
2023-02-08T16:09:53.713Z,2.93
2023-02-08T16:12:23.674Z,2.93
2023-02-08T16:14:52.960Z,2.63
2023-02-08T16:17:37.108Z,3.10
2023-02-08T16:20:05.429Z,3.43
2023-02-08T16:22:33.563Z,3.27
2023-02-08T16:25:23.439Z,2.23
2023-02-08T16:27:52.577Z,4.03
2023-02-08T16:30:20.791Z,2.63
2023-02-08T16:32:48.513Z,2.80
2023-02-08T16:35:21.474Z,2.30
2023-02-08T16:37:54.633Z,2.67
2023-02-08T16:40:48.769Z,2.60
2023-02-08T16:43:19.211Z,4.37
2023-02-08T16:45:47.257Z,3.03
2023-02-08T16:48:33.355Z,3.43
2023-02-08T16:51:01.175Z,3.33
2023-02-08T16:53:41.325Z,5.03
2023-02-08T16:56:09.839Z,4.13
2023-02-08T16:58:38.944Z,5.40
2023-02-08T17:01:07.013Z,3.33
2023-02-08T17:03:38.013Z,3.40
2023-02-08T17:06:06.188Z,5.23
2023-02-08T17:08:35.884Z,3.40
2023-02-08T17:11:03.848Z,11.43
2023-02-08T17:13:31.590Z,28.90
2023-02-08T17:16:01.303Z,5.20
2023-02-08T17:18:29.162Z,2.87
2023-02-08T17:20:59.862Z,7.07
2023-02-08T17:23:27.717Z,3.93
2023-02-08T17:25:55.699Z,3.77
2023-02-08T17:28:23.455Z,3.50
2023-02-08T17:30:53.134Z,3.17
2023-02-08T17:33:22.832Z,2.80
2023-02-08T17:35:52.883Z,8.57
2023-02-08T17:38:21.579Z,4.53
2023-02-08T17:40:49.430Z,5.57
2023-02-08T17:43:17.170Z,3.37
2023-02-08T17:45:45.314Z,3.13
2023-02-08T17:48:14.437Z,5.00
2023-02-08T17:50:45.091Z,4.60
2023-02-08T17:53:13.677Z,3.90
2023-02-08T17:55:43.209Z,5.00
2023-02-08T17:58:11.280Z,6.07
2023-02-08T18:00:39.354Z,3.63
2023-02-08T18:03:07.313Z,3.67
2023-02-08T18:05:35.281Z,4.60
2023-02-08T18:08:04.477Z,4.83
2023-02-08T18:10:32.834Z,3.73
2023-02-08T18:13:00.615Z,3.97
2023-02-08T18:15:28.573Z,5.43
2023-02-08T18:17:56.438Z,5.40
2023-02-08T18:20:30.616Z,4.80
2023-02-08T18:22:58.581Z,8.33
2023-02-08T18:25:30.801Z,5.10
2023-02-08T18:28:00.966Z,8.47
2023-02-08T18:31:53.693Z,7.27
2023-02-08T18:37:12.413Z,4.50
2023-02-08T18:39:40.798Z,3.20
2023-02-08T18:42:10.675Z,4.17
2023-02-08T18:44:39.658Z,3.53
2023-02-08T18:47:07.688Z,6.90
2023-02-08T18:49:40.450Z,3.87
2023-02-08T18:52:09.617Z,3.20
2023-02-08T18:54:38.048Z,4.20
2023-02-08T18:57:07.706Z,4.37
2023-02-08T18:59:37.095Z,3.63
2023-02-08T19:02:07.002Z,4.93
2023-02-08T19:04:37.848Z,5.77
2023-02-08T19:07:05.737Z,4.13
2023-02-08T19:09:35.906Z,4.17
2023-02-08T19:12:05.927Z,4.20
2023-02-08T19:14:36.370Z,5.67
2023-02-08T19:17:05.993Z,4.23
2023-02-08T19:19:36.014Z,4.33
2023-02-08T19:22:04.894Z,4.00
2023-02-08T19:24:32.689Z,4.37
2023-02-08T19:27:00.528Z,4.57
2023-02-08T19:29:28.250Z,5.53
2023-02-08T19:31:58.265Z,6.40
2023-02-08T19:34:27.689Z,4.80
2023-02-08T19:36:55.774Z,4.30
2023-02-08T19:39:24.910Z,4.73
2023-02-08T19:41:54.057Z,4.50
2023-02-08T19:44:21.861Z,6.27
2023-02-08T19:46:50.021Z,5.30
2023-02-08T19:49:17.787Z,4.60
2023-02-08T19:51:46.932Z,4.40
2023-02-08T19:54:15.989Z,6.57
2023-02-08T19:56:43.739Z,5.43
2023-02-08T19:59:17.479Z,3.80
2023-02-08T20:01:45.352Z,8.43
2023-02-08T20:04:13.486Z,7.07
2023-02-08T20:06:41.683Z,5.53
2023-02-08T20:09:10.894Z,6.60
2023-02-08T20:11:55.029Z,6.30
2023-02-08T20:14:24.586Z,6.63
2023-02-08T20:16:52.433Z,8.47
2023-02-08T20:19:20.438Z,6.23
2023-02-08T20:21:48.139Z,6.30
2023-02-08T20:24:17.599Z,6.13
2023-02-08T20:26:45.976Z,6.17
2023-02-08T20:29:15.125Z,8.13
2023-02-08T20:31:44.053Z,7.87
2023-02-08T20:34:13.064Z,7.37
2023-02-08T20:36:44.099Z,7.37
2023-02-08T20:39:14.059Z,5.40
2023-02-08T20:41:44.296Z,7.23
2023-02-08T20:44:12.747Z,7.03
2023-02-08T20:46:43.073Z,8.27
2023-02-08T20:49:12.720Z,6.90
2023-02-08T20:51:44.015Z,7.70
2023-02-08T20:54:12.492Z,6.33
2023-02-08T20:56:40.265Z,6.00
2023-02-08T21:01:40.521Z,6.73
2023-02-08T21:04:08.519Z,6.27
2023-02-08T21:06:37.559Z,7.60
2023-02-08T21:09:06.850Z,6.80
2023-02-08T21:11:35.675Z,6.27
2023-02-08T21:14:03.619Z,7.13
2023-02-08T21:16:31.765Z,10.57
2023-02-08T21:19:01.120Z,6.87
2023-02-08T21:21:29.225Z,6.37
2023-02-08T21:23:58.085Z,7.50
2023-02-08T21:26:26.133Z,7.33
2023-02-08T21:28:54.380Z,8.20
2023-02-08T21:31:22.935Z,6.63
2023-02-08T21:33:51.375Z,8.83
2023-02-08T21:36:21.564Z,7.63
2023-02-08T21:38:49.437Z,8.07
2023-02-08T21:41:20.270Z,11.30
2023-02-08T21:43:49.340Z,6.93
2023-02-08T21:46:18.473Z,9.63
2023-02-08T21:49:03.838Z,8.10
2023-02-08T21:51:50.743Z,10.17
2023-02-08T21:54:40.363Z,8.83
2023-02-08T21:57:10.385Z,7.93
2023-02-08T21:59:38.280Z,7.10
2023-02-08T22:02:06.967Z,7.33
2023-02-08T22:04:35.163Z,9.00
2023-02-08T22:07:05.277Z,8.17
2023-02-08T22:09:33.109Z,6.70
2023-02-08T22:12:00.803Z,7.03
2023-02-08T22:14:28.448Z,9.37
2023-02-08T22:16:56.576Z,6.30
2023-02-08T22:19:24.356Z,6.33
2023-02-08T22:21:52.541Z,15.43
2023-02-08T22:24:21.646Z,26.23
2023-02-08T22:26:49.414Z,8.10
2023-02-08T22:29:20.047Z,7.40
2023-02-08T22:31:47.909Z,10.70
2023-02-08T22:34:15.679Z,7.67
2023-02-08T22:36:43.399Z,6.83
2023-02-08T22:39:11.086Z,7.60
2023-02-08T22:41:40.222Z,11.23
2023-02-08T22:44:07.870Z,7.63
2023-02-08T22:46:35.644Z,7.47
2023-02-08T22:49:03.480Z,6.80
2023-02-08T22:51:31.295Z,7.43
2023-02-08T22:53:58.995Z,8.00
2023-02-08T22:56:26.745Z,7.00
2023-02-08T22:58:55.813Z,7.53
2023-02-08T23:01:23.541Z,7.53
2023-02-08T23:03:51.274Z,6.60
2023-02-08T23:06:20.393Z,8.67
2023-02-08T23:08:48.228Z,9.27
2023-02-08T23:11:16.370Z,8.80
2023-02-08T23:13:44.024Z,7.67
2023-02-08T23:16:14.389Z,9.13
2023-02-08T23:18:42.391Z,8.33
2023-02-08T23:21:10.579Z,8.97
2023-02-08T23:23:38.314Z,6.90
2023-02-08T23:26:06.862Z,6.67
2023-02-08T23:28:34.691Z,9.23
2023-02-08T23:31:05.513Z,7.93
2023-02-08T23:33:34.930Z,9.57
2023-02-08T23:36:06.662Z,8.87
2023-02-08T23:38:34.413Z,8.80
2023-02-08T23:41:04.031Z,7.77
2023-02-08T23:43:32.124Z,8.03
2023-02-08T23:45:59.898Z,9.70
2023-02-08T23:48:27.725Z,8.43
2023-02-08T23:50:59.770Z,8.33
2023-02-08T23:53:30.656Z,9.30
2023-02-08T23:56:09.449Z,9.90
2023-02-08T23:58:37.257Z,8.43
